Time;durP1;ratioP1;P1;durP2;ratioP2;P2;SDS_P1;SDS_P2;PMS_P1;PMS_P2;Temp;Humidity;BMP_temperature;BMP_pressure;BME280_temperature;BME280_humidity;BME280_pressure;Samples;Min_cycle;Max_cycle;Signal;HPM_P1;HPM_P2
2021/12/18 00:01:17;;;;;;;11.60;6.40;;;4.60;99.90;;;;;;5070244;28;20174;-72
2021/12/18 00:03:44;;;;;;;10.38;7.40;;;4.60;99.90;;;;;;5070051;28;20202;-72
2021/12/18 00:06:10;;;;;;;7.28;6.22;;;4.50;99.90;;;;;;5070218;28;20168;-72
2021/12/18 00:08:37;;;;;;;12.70;7.93;;;4.50;99.90;;;;;;5069999;28;20166;-71
2021/12/18 00:11:03;;;;;;;14.90;7.20;;;4.50;99.90;;;;;;5070255;28;20381;-73
2021/12/18 00:13:29;;;;;;;12.00;6.28;;;4.50;99.90;;;;;;5070002;28;20301;-72
2021/12/18 00:15:54;;;;;;;13.20;6.80;;;4.50;99.90;;;;;;5080716;28;20268;-72
2021/12/18 00:18:20;;;;;;;10.87;6.20;;;4.50;99.90;;;;;;5089737;28;20161;-72
2021/12/18 00:20:47;;;;;;;9.30;7.00;;;4.50;99.90;;;;;;5090099;27;20166;-72
2021/12/18 00:23:13;;;;;;;7.85;5.38;;;4.40;99.90;;;;;;5089841;28;20411;-71
2021/12/18 00:25:38;;;;;;;9.97;8.53;;;4.40;99.90;;;;;;5089886;28;20222;-73
2021/12/18 00:28:04;;;;;;;9.93;6.97;;;4.40;99.90;;;;;;5089605;28;20395;-71
2021/12/18 00:30:30;;;;;;;11.73;5.87;;;4.30;99.90;;;;;;5089980;28;20477;-73
2021/12/18 00:32:56;;;;;;;7.73;6.20;;;4.30;99.90;;;;;;5072080;28;20415;-73
2021/12/18 00:35:22;;;;;;;11.50;6.70;;;4.30;99.90;;;;;;5089630;28;20482;-72
2021/12/18 00:37:48;;;;;;;10.17;6.73;;;4.20;99.90;;;;;;5089350;28;20386;-70
2021/12/18 00:40:20;;;;;;;12.83;7.40;;;4.20;99.90;;;;;;5089692;28;20408;-73
2021/12/18 00:42:57;;;;;;;10.82;5.90;;;4.20;99.90;;;;;;5089463;28;20453;-73
2021/12/18 00:45:23;;;;;;;12.13;7.75;;;4.20;99.90;;;;;;5089398;28;20171;-71
2021/12/18 00:47:49;;;;;;;8.83;6.57;;;4.20;99.90;;;;;;5089143;28;20160;-72
2021/12/18 00:50:18;;;;;;;15.00;6.70;;;4.30;99.90;;;;;;5089252;28;20403;-72
2021/12/18 00:52:44;;;;;;;7.97;5.10;;;4.30;99.90;;;;;;5089375;28;20426;-72
2021/12/18 00:55:10;;;;;;;7.97;6.43;;;4.30;99.90;;;;;;5089292;28;20236;-71
2021/12/18 00:57:36;;;;;;;11.90;8.47;;;4.30;99.90;;;;;;5088957;28;20308;-73
2021/12/18 01:00:08;;;;;;;13.20;7.20;;;4.20;99.90;;;;;;5089147;28;20173;-73
2021/12/18 01:02:36;;;;;;;8.25;7.22;;;4.20;99.90;;;;;;5089080;28;20181;-72
2021/12/18 01:05:03;;;;;;;6.05;5.03;;;4.20;99.90;;;;;;5071551;28;20184;-73
2021/12/18 01:07:29;;;;;;;9.63;6.55;;;4.20;99.90;;;;;;5088301;28;20241;-71
2021/12/18 01:10:07;;;;;;;14.47;7.20;;;4.20;99.90;;;;;;5089048;28;20369;-72
2021/12/18 01:12:40;;;;;;;15.13;7.93;;;4.20;99.90;;;;;;5089035;28;20235;-74
2021/12/18 01:23:09;;;;;;;7.60;6.30;;;4.20;99.90;;;;;;5068724;28;20297;-72
2021/12/18 01:25:35;;;;;;;10.90;6.33;;;4.20;99.90;;;;;;5068695;28;20193;-72
2021/12/18 01:28:01;;;;;;;6.77;6.00;;;4.10;99.90;;;;;;5068289;28;20172;-73
2021/12/18 01:30:27;;;;;;;11.23;6.03;;;4.10;99.90;;;;;;5068598;28;20273;-73
2021/12/18 01:32:55;;;;;;;14.00;7.07;;;4.10;99.90;;;;;;5068369;28;20393;-73
2021/12/18 01:35:22;;;;;;;12.52;9.93;;;4.20;99.90;;;;;;5068285;28;20210;-73
2021/12/18 01:37:49;;;;;;;11.18;8.43;;;4.10;99.90;;;;;;5068121;28;20167;-73
2021/12/18 01:40:16;;;;;;;13.77;7.05;;;4.10;99.90;;;;;;5068467;28;20278;-72
2021/12/18 01:45:25;;;;;;;10.20;7.47;;;4.00;99.90;;;;;;5068346;28;20207;-72
2021/12/18 01:53:20;;;;;;;8.25;4.75;;;3.90;99.90;;;;;;5068075;28;20192;-72
2021/12/18 01:55:49;;;;;;;9.65;6.43;;;3.90;99.90;;;;;;5067916;28;20217;-72
2021/12/18 01:58:22;;;;;;;12.07;6.90;;;4.00;99.90;;;;;;5067700;28;20174;-71
2021/12/18 02:00:49;;;;;;;10.90;5.85;;;3.90;99.90;;;;;;5067998;28;20165;-72
2021/12/18 02:03:14;;;;;;;11.48;6.57;;;3.90;99.90;;;;;;5067575;28;20325;-71
2021/12/18 02:05:40;;;;;;;15.67;8.03;;;3.90;99.90;;;;;;5050302;28;20229;-73
2021/12/18 02:08:07;;;;;;;9.88;5.68;;;4.00;99.90;;;;;;5067583;28;20269;-73
2021/12/18 02:10:44;;;;;;;9.15;8.25;;;4.00;99.90;;;;;;5067805;28;20190;-72
2021/12/18 02:21:22;;;;;;;11.32;5.28;;;4.00;99.90;;;;;;5087594;28;20284;-70
2021/12/18 02:23:48;;;;;;;11.52;7.32;;;3.90;99.90;;;;;;5087555;28;20267;-72
2021/12/18 02:26:14;;;;;;;9.25;6.97;;;3.90;99.90;;;;;;5087378;28;20265;-73
2021/12/18 02:28:44;;;;;;;10.70;6.10;;;4.00;99.90;;;;;;5070306;28;20180;-71
2021/12/18 02:31:10;;;;;;;7.03;4.18;;;4.00;99.90;;;;;;5087432;28;20411;-72
2021/12/18 02:33:36;;;;;;;9.77;7.32;;;3.90;99.90;;;;;;5087225;28;20321;-73
2021/12/18 02:36:06;;;;;;;8.00;5.70;;;3.90;99.90;;;;;;5087134;28;20260;-72
2021/12/18 02:41:30;;;;;;;9.05;7.95;;;3.90;99.90;;;;;;5087471;28;20171;-72
2021/12/18 02:43:59;;;;;;;7.78;7.05;;;3.90;99.90;;;;;;5087131;28;20304;-72
2021/12/18 02:46:25;;;;;;;9.75;5.60;;;3.90;99.90;;;;;;5086810;28;20223;-71
2021/12/18 02:48:53;;;;;;;10.45;5.78;;;3.90;99.90;;;;;;5087134;28;20176;-71
2021/12/18 02:51:20;;;;;;;7.75;5.85;;;3.80;99.90;;;;;;5087182;28;20176;-71
2021/12/18 02:53:51;;;;;;;8.95;6.60;;;3.80;99.90;;;;;;5087090;28;20227;-72
2021/12/18 02:56:23;;;;;;;8.95;6.38;;;3.80;99.90;;;;;;5086618;28;20313;-71
2021/12/18 02:58:53;;;;;;;8.75;6.30;;;3.80;99.90;;;;;;5087023;28;20169;-72
2021/12/18 03:01:22;;;;;;;10.55;7.80;;;3.80;99.90;;;;;;5087149;28;20255;-72
2021/12/18 03:03:49;;;;;;;8.82;5.80;;;3.90;99.90;;;;;;5086692;28;20207;-73
2021/12/18 03:09:33;;;;;;;8.68;7.43;;;3.80;99.90;;;;;;5065333;28;20181;-72
2021/12/18 03:25:28;;;;;;;10.98;7.40;;;3.70;99.90;;;;;;5066837;28;20172;-72
2021/12/18 03:27:54;;;;;;;13.73;7.65;;;3.70;99.90;;;;;;5066318;28;20196;-72
2021/12/18 03:30:21;;;;;;;9.90;4.75;;;3.70;99.90;;;;;;5068167;28;20245;-72
2021/12/18 03:32:46;;;;;;;11.75;7.75;;;3.60;99.90;;;;;;5070701;28;20169;-72
2021/12/18 03:35:14;;;;;;;9.17;5.50;;;3.60;99.90;;;;;;5070587;28;20236;-72
2021/12/18 03:37:40;;;;;;;8.60;5.82;;;3.50;99.90;;;;;;5070422;28;20404;-72
2021/12/18 03:40:09;;;;;;;7.97;5.35;;;3.50;99.90;;;;;;5070685;28;20176;-73
2021/12/18 03:42:36;;;;;;;10.65;4.50;;;3.50;99.90;;;;;;5070533;28;20176;-73
2021/12/18 03:45:03;;;;;;;12.13;6.85;;;3.50;99.90;;;;;;5070546;28;20197;-72
2021/12/18 03:47:29;;;;;;;11.38;6.43;;;3.40;99.90;;;;;;5052697;28;20240;-73
2021/12/18 03:49:54;;;;;;;9.40;6.80;;;3.40;99.90;;;;;;5070314;28;20193;-72
2021/12/18 03:52:20;;;;;;;9.03;5.50;;;3.40;99.90;;;;;;5070556;28;20365;-72
2021/12/18 03:54:45;;;;;;;5.53;4.97;;;3.30;99.90;;;;;;5070270;28;20188;-73
2021/12/18 03:57:11;;;;;;;15.17;5.63;;;3.30;99.90;;;;;;5070070;28;20180;-72
2021/12/18 03:59:37;;;;;;;5.07;4.10;;;3.30;99.90;;;;;;5052762;28;20194;-73
2021/12/18 04:02:02;;;;;;;5.53;4.13;;;3.30;99.90;;;;;;5070224;28;20224;-73
2021/12/18 04:04:28;;;;;;;7.23;5.83;;;3.30;99.90;;;;;;5070101;28;20201;-74
2021/12/18 04:06:54;;;;;;;10.03;3.43;;;3.30;99.90;;;;;;5069951;28;20393;-72
2021/12/18 04:09:20;;;;;;;9.83;4.40;;;3.30;99.90;;;;;;5070157;28;20411;-73
2021/12/18 04:11:46;;;;;;;10.00;7.30;;;3.30;99.90;;;;;;5069972;28;20458;-72
2021/12/18 04:14:13;;;;;;;8.73;6.30;;;3.20;99.90;;;;;;5070054;28;20197;-73
2021/12/18 04:16:38;;;;;;;6.50;3.85;;;3.20;99.90;;;;;;5069015;28;20301;-74
2021/12/18 04:19:05;;;;;;;5.40;4.90;;;3.10;99.90;;;;;;5090030;28;20161;-73
2021/12/18 04:21:32;;;;;;;6.75;5.05;;;3.20;99.90;;;;;;5089888;28;20236;-72
2021/12/18 04:23:58;;;;;;;6.35;4.70;;;3.30;99.90;;;;;;5089795;28;20181;-73
2021/12/18 04:26:24;;;;;;;7.65;4.60;;;3.20;99.90;;;;;;5071995;28;20168;-72
2021/12/18 04:28:50;;;;;;;6.23;3.77;;;3.20;99.90;;;;;;5090349;28;20188;-72
2021/12/18 04:31:16;;;;;;;8.30;4.30;;;3.20;99.90;;;;;;5089940;28;20164;-73
2021/12/18 04:33:42;;;;;;;6.30;4.63;;;3.20;99.90;;;;;;5089665;28;20192;-72
2021/12/18 04:36:07;;;;;;;11.10;6.53;;;3.20;99.90;;;;;;5089710;28;20211;-73
2021/12/18 04:38:34;;;;;;;4.10;3.07;;;3.20;99.90;;;;;;5089465;28;20387;-73
2021/12/18 04:41:00;;;;;;;7.82;3.85;;;3.20;99.90;;;;;;5089506;28;20181;-71
2021/12/18 04:43:26;;;;;;;8.00;4.85;;;3.20;99.90;;;;;;5091925;28;20177;-72
2021/12/18 04:45:51;;;;;;;8.77;4.10;;;3.30;99.90;;;;;;5094840;28;20183;-73
2021/12/18 04:48:17;;;;;;;4.87;3.80;;;3.30;99.90;;;;;;5091184;28;20161;-72
2021/12/18 04:50:43;;;;;;;9.33;4.70;;;3.30;99.90;;;;;;5089401;28;20221;-72
2021/12/18 04:53:10;;;;;;;6.23;4.07;;;3.30;99.90;;;;;;5089370;28;20215;-73
2021/12/18 04:55:36;;;;;;;3.90;3.33;;;3.30;99.90;;;;;;5089258;28;20217;-73
2021/12/18 04:58:02;;;;;;;6.47;5.25;;;3.30;99.90;;;;;;5089010;28;20281;-72
2021/12/18 05:00:37;;;;;;;6.40;4.38;;;3.30;99.90;;;;;;5089265;28;20258;-73
2021/12/18 05:03:05;;;;;;;6.75;4.45;;;3.30;99.90;;;;;;5088962;28;20189;-73
2021/12/18 05:05:33;;;;;;;8.07;4.10;;;3.30;99.90;;;;;;5089145;28;20377;-73
2021/12/18 05:07:59;;;;;;;6.78;3.88;;;3.30;99.90;;;;;;5071021;28;20293;-72
2021/12/18 05:10:25;;;;;;;8.55;4.45;;;3.30;99.90;;;;;;5088989;28;20233;-73
2021/12/18 05:12:50;;;;;;;6.23;4.53;;;3.30;99.90;;;;;;5088930;28;20172;-71
2021/12/18 05:15:16;;;;;;;2.83;2.50;;;3.30;99.90;;;;;;5083260;28;20255;-72
2021/12/18 05:17:41;;;;;;;4.27;3.83;;;3.30;99.90;;;;;;5068645;28;20238;-73
2021/12/18 05:20:08;;;;;;;6.03;4.30;;;3.30;99.90;;;;;;5068753;28;20240;-72
2021/12/18 05:22:33;;;;;;;10.07;3.30;;;3.40;99.90;;;;;;5050993;28;20165;-73
2021/12/18 05:24:59;;;;;;;8.80;5.83;;;3.40;99.90;;;;;;5068548;28;20208;-73
2021/12/18 05:27:25;;;;;;;4.77;3.13;;;3.40;99.90;;;;;;5068425;28;20565;-73
2021/12/18 05:29:50;;;;;;;7.13;4.70;;;3.40;99.90;;;;;;5068612;28;20169;-72
2021/12/18 05:32:16;;;;;;;6.13;3.77;;;3.40;99.90;;;;;;5068619;28;20172;-73
2021/12/18 05:34:42;;;;;;;5.40;3.37;;;3.40;99.90;;;;;;5068324;28;20185;-72
2021/12/18 05:37:31;;;;;;;5.87;4.70;;;3.40;99.90;;;;;;5050643;28;20177;-73
2021/12/18 05:39:58;;;;;;;5.72;4.13;;;3.40;99.90;;;;;;5068491;28;20185;-72
2021/12/18 05:42:24;;;;;;;5.97;3.30;;;3.40;99.90;;;;;;5068336;28;20188;-73
2021/12/18 05:44:50;;;;;;;6.10;2.67;;;3.30;99.90;;;;;;5068178;28;20197;-73
2021/12/18 05:47:15;;;;;;;5.83;4.03;;;3.30;99.90;;;;;;5068083;28;20636;-73
2021/12/18 05:49:41;;;;;;;3.97;3.37;;;3.30;99.90;;;;;;5068202;28;20228;-72
2021/12/18 05:52:07;;;;;;;5.80;3.57;;;3.30;99.90;;;;;;5068267;28;20165;-72
2021/12/18 05:54:35;;;;;;;3.65;3.17;;;3.20;99.90;;;;;;5067876;28;20196;-72
2021/12/18 05:57:06;;;;;;;5.88;2.67;;;3.30;99.90;;;;;;5069477;28;20264;-73
2021/12/18 05:59:33;;;;;;;6.90;5.78;;;3.30;99.90;;;;;;5068877;28;20365;-72
2021/12/18 06:01:59;;;;;;;5.63;3.13;;;3.30;99.90;;;;;;5067971;28;20173;-71
2021/12/18 06:04:25;;;;;;;5.47;3.63;;;3.30;99.90;;;;;;5067646;28;20247;-73
2021/12/18 06:06:51;;;;;;;5.10;2.77;;;3.30;99.90;;;;;;5067608;28;20166;-72
2021/12/18 06:09:16;;;;;;;6.50;4.50;;;3.40;99.90;;;;;;5067790;28;20362;-73
2021/12/18 06:11:42;;;;;;;5.53;4.67;;;3.30;99.90;;;;;;5067763;28;20185;-72
2021/12/18 06:14:09;;;;;;;2.87;2.57;;;3.20;99.90;;;;;;5050061;28;20298;-73
2021/12/18 06:16:35;;;;;;;4.90;3.80;;;3.20;99.90;;;;;;5083429;28;20514;-72
2021/12/18 06:19:00;;;;;;;8.32;4.97;;;3.20;99.90;;;;;;5087582;28;20175;-73
2021/12/18 06:21:26;;;;;;;6.97;3.90;;;3.30;99.90;;;;;;5087609;28;20231;-72
2021/12/18 06:23:54;;;;;;;7.30;5.03;;;3.20;99.90;;;;;;5087486;28;20329;-73
2021/12/18 06:26:22;;;;;;;6.80;4.38;;;3.20;99.90;;;;;;5087512;28;20399;-71
2021/12/18 06:28:48;;;;;;;3.55;3.25;;;3.10;99.90;;;;;;5087457;28;20165;-73
2021/12/18 06:31:14;;;;;;;4.57;4.18;;;3.20;99.90;;;;;;5087411;28;20272;-72
2021/12/18 06:33:39;;;;;;;6.30;3.00;;;3.20;99.90;;;;;;5087360;28;20196;-74
2021/12/18 06:36:05;;;;;;;3.53;2.83;;;3.20;99.90;;;;;;5087289;28;20485;-72
2021/12/18 06:38:31;;;;;;;4.70;3.90;;;3.20;99.90;;;;;;5087060;28;20168;-72
2021/12/18 06:40:57;;;;;;;6.43;5.80;;;3.30;99.90;;;;;;5087217;28;20411;-72
2021/12/18 06:43:22;;;;;;;8.23;3.00;;;3.30;99.90;;;;;;5087106;28;20271;-71
2021/12/18 06:45:48;;;;;;;4.13;3.10;;;3.30;99.90;;;;;;5087133;28;20203;-73
2021/12/18 06:48:14;;;;;;;3.70;2.90;;;3.30;99.90;;;;;;5086891;28;20191;-72
2021/12/18 06:50:39;;;;;;;5.37;2.93;;;3.40;99.90;;;;;;5087267;28;20183;-73
2021/12/18 06:53:06;;;;;;;4.17;2.83;;;3.30;99.90;;;;;;5087023;28;20189;-71
2021/12/18 06:55:33;;;;;;;8.88;4.28;;;3.40;99.90;;;;;;5087155;28;20479;-73
2021/12/18 06:57:59;;;;;;;5.25;4.45;;;3.40;99.90;;;;;;5086830;28;20176;-71
2021/12/18 07:00:26;;;;;;;5.13;4.23;;;3.40;99.90;;;;;;5087021;28;20207;-72
2021/12/18 07:02:53;;;;;;;5.38;3.92;;;3.50;99.90;;;;;;5078491;28;20505;-71
2021/12/18 07:05:19;;;;;;;5.60;4.05;;;3.50;99.90;;;;;;5065621;28;20172;-72
2021/12/18 07:07:45;;;;;;;4.40;2.83;;;3.50;99.90;;;;;;5066283;28;20170;-70
2021/12/18 07:10:12;;;;;;;5.43;3.35;;;3.50;99.90;;;;;;5066944;28;20409;-71
2021/12/18 07:12:39;;;;;;;6.93;3.47;;;3.50;99.90;;;;;;5066910;28;20392;-76
2021/12/18 07:15:07;;;;;;;4.70;3.55;;;3.50;99.90;;;;;;5070577;28;20348;-70
2021/12/18 07:17:33;;;;;;;4.13;3.35;;;3.60;99.90;;;;;;5086539;28;20157;-71
2021/12/18 07:19:59;;;;;;;2.93;2.43;;;3.60;99.90;;;;;;5086830;28;20184;-71
2021/12/18 07:22:24;;;;;;;7.47;4.57;;;3.50;99.90;;;;;;5083541;28;20169;-70
2021/12/18 07:24:50;;;;;;;2.97;2.77;;;3.60;99.90;;;;;;5067215;28;20424;-71
2021/12/18 07:27:16;;;;;;;3.57;2.80;;;3.70;99.90;;;;;;5066387;28;20162;-71
2021/12/18 07:29:41;;;;;;;5.40;3.87;;;3.70;99.90;;;;;;5066521;28;20408;-71
2021/12/18 07:32:07;;;;;;;6.20;3.53;;;3.70;99.90;;;;;;5066677;28;20396;-71
2021/12/18 07:34:33;;;;;;;4.40;2.63;;;3.70;99.90;;;;;;5066470;28;20188;-71
2021/12/18 07:36:59;;;;;;;8.17;3.50;;;3.70;99.90;;;;;;5066170;28;20213;-70
2021/12/18 07:39:25;;;;;;;3.90;3.00;;;3.70;99.90;;;;;;5066478;28;20683;-71
2021/12/18 07:41:50;;;;;;;4.63;2.80;;;3.70;99.90;;;;;;5066518;28;20188;-73
2021/12/18 07:44:16;;;;;;;6.60;3.70;;;3.70;99.90;;;;;;5051410;28;20188;-71
2021/12/18 07:46:42;;;;;;;3.70;2.93;;;3.70;99.90;;;;;;5069240;28;20175;-73
2021/12/18 07:49:08;;;;;;;4.55;3.85;;;3.80;99.90;;;;;;5086579;28;20288;-71
2021/12/18 07:51:36;;;;;;;6.80;4.00;;;3.70;99.90;;;;;;5086285;28;20161;-73
2021/12/18 07:54:02;;;;;;;5.85;3.72;;;3.80;99.90;;;;;;5086425;28;20184;-75
2021/12/18 07:56:28;;;;;;;5.72;3.75;;;3.80;99.90;;;;;;5077247;28;20225;-71
2021/12/18 07:58:53;;;;;;;5.07;3.77;;;3.80;99.90;;;;;;5066243;28;20405;-73
2021/12/18 08:01:19;;;;;;;8.30;4.40;;;3.80;99.90;;;;;;5048673;28;20180;-72
2021/12/18 08:03:45;;;;;;;3.67;2.37;;;3.70;99.90;;;;;;5080571;28;20306;-70
2021/12/18 08:06:11;;;;;;;7.23;4.57;;;3.80;99.90;;;;;;5068287;28;20414;-71
2021/12/18 08:08:37;;;;;;;3.27;2.97;;;3.80;99.90;;;;;;5085813;28;20172;-70
2021/12/18 08:11:03;;;;;;;7.80;3.37;;;3.80;99.90;;;;;;5086358;28;20157;-71
2021/12/18 08:13:28;;;;;;;4.95;3.22;;;3.80;99.90;;;;;;5086059;28;20423;-70
2021/12/18 08:15:54;;;;;;;4.00;3.10;;;3.80;99.90;;;;;;5075268;28;20220;-71
2021/12/18 08:18:20;;;;;;;3.42;3.13;;;3.80;99.90;;;;;;5068710;28;20173;-70
2021/12/18 08:20:46;;;;;;;5.33;3.60;;;3.80;99.90;;;;;;5069966;28;20166;-71
2021/12/18 08:23:12;;;;;;;4.27;2.67;;;3.80;99.90;;;;;;5069551;28;20182;-67
2021/12/18 08:25:38;;;;;;;5.83;3.90;;;3.90;99.90;;;;;;5069638;28;20616;-70
2021/12/18 08:28:05;;;;;;;6.00;3.77;;;3.90;99.90;;;;;;5069297;28;20458;-71
2021/12/18 08:30:33;;;;;;;5.00;3.63;;;3.90;99.90;;;;;;5069733;28;20279;-71
2021/12/18 08:33:00;;;;;;;7.75;4.22;;;3.90;99.90;;;;;;5071319;28;20189;-70
2021/12/18 08:35:27;;;;;;;5.80;3.08;;;3.90;99.90;;;;;;5089415;28;20199;-71
2021/12/18 08:37:55;;;;;;;4.40;3.92;;;3.90;99.90;;;;;;5089321;28;20380;-70
2021/12/18 08:40:21;;;;;;;5.70;3.88;;;3.90;99.90;;;;;;5089572;28;20227;-70
2021/12/18 08:42:47;;;;;;;6.18;4.30;;;3.80;99.90;;;;;;5089306;28;20163;-71
2021/12/18 08:45:12;;;;;;;3.40;3.10;;;3.90;99.90;;;;;;5089645;28;20238;-70
2021/12/18 08:47:39;;;;;;;3.70;3.20;;;3.90;99.90;;;;;;5089173;28;20453;-70
2021/12/18 08:50:07;;;;;;;3.10;2.75;;;3.90;99.90;;;;;;5089381;28;20184;-70
2021/12/18 08:52:33;;;;;;;5.15;3.90;;;3.90;99.90;;;;;;5089258;28;20263;-70
2021/12/18 08:55:02;;;;;;;4.30;3.17;;;4.00;99.90;;;;;;5089176;28;20486;-71
2021/12/18 08:57:28;;;;;;;5.25;3.80;;;4.00;99.90;;;;;;5088669;28;20220;-71
2021/12/18 08:59:53;;;;;;;5.03;4.50;;;4.00;99.90;;;;;;5089174;28;20262;-71
2021/12/18 09:02:19;;;;;;;3.73;2.77;;;4.10;99.90;;;;;;5088681;28;20240;-74
2021/12/18 09:04:45;;;;;;;4.70;3.73;;;4.10;99.90;;;;;;5088588;28;20348;-73
2021/12/18 09:07:11;;;;;;;4.67;3.40;;;4.20;99.90;;;;;;5088803;28;20574;-76
2021/12/18 09:09:38;;;;;;;4.80;3.20;;;4.20;99.90;;;;;;5087999;28;20523;-76
2021/12/18 09:12:05;;;;;;;5.25;3.03;;;4.20;99.90;;;;;;5087673;28;20167;-74
2021/12/18 09:14:31;;;;;;;3.45;2.58;;;4.30;99.90;;;;;;5087714;28;20200;-72
2021/12/18 09:16:57;;;;;;;5.50;2.80;;;4.30;99.90;;;;;;5067655;28;20208;-74
2021/12/18 09:19:22;;;;;;;6.87;4.50;;;4.30;99.90;;;;;;5067688;28;20403;-75
2021/12/18 09:21:48;;;;;;;6.23;3.80;;;4.20;99.90;;;;;;5067734;28;20262;-73
2021/12/18 09:24:14;;;;;;;6.93;3.57;;;4.20;99.90;;;;;;5068201;28;20223;-74
2021/12/18 09:26:39;;;;;;;6.83;3.67;;;4.20;99.90;;;;;;5068225;28;20415;-72
2021/12/18 09:29:05;;;;;;;5.40;2.97;;;4.30;99.90;;;;;;5068173;28;20165;-73
2021/12/18 09:31:31;;;;;;;8.30;5.07;;;4.30;99.90;;;;;;5069010;28;20224;-73
2021/12/18 09:33:56;;;;;;;4.57;4.13;;;4.30;99.90;;;;;;5067421;28;20243;-73
2021/12/18 09:36:22;;;;;;;7.47;5.67;;;4.30;99.90;;;;;;5067999;28;20190;-74
2021/12/18 09:38:48;;;;;;;6.20;4.72;;;4.30;99.90;;;;;;5067976;28;20170;-75
2021/12/18 09:41:14;;;;;;;3.97;3.67;;;4.40;99.90;;;;;;5050803;28;20188;-72
2021/12/18 09:43:40;;;;;;;5.90;3.53;;;4.40;99.90;;;;;;5068461;28;20305;-73
2021/12/18 09:46:09;;;;;;;7.50;3.97;;;4.50;99.90;;;;;;5068082;28;20403;-71
2021/12/18 09:48:38;;;;;;;6.53;4.38;;;4.50;99.90;;;;;;5067895;28;20165;-71
2021/12/18 09:51:09;;;;;;;6.60;4.55;;;4.50;99.90;;;;;;5068085;28;20159;-73
2021/12/18 09:53:35;;;;;;;6.72;4.20;;;4.50;99.90;;;;;;5066960;28;20220;-72
2021/12/18 09:56:05;;;;;;;9.38;5.28;;;4.60;99.90;;;;;;5066156;28;20232;-72
2021/12/18 09:58:31;;;;;;;5.53;4.07;;;4.50;99.90;;;;;;5087620;28;20167;-70
2021/12/18 10:00:57;;;;;;;4.72;4.25;;;4.60;99.90;;;;;;5087769;28;20236;-72
2021/12/18 10:03:53;;;;;;;5.75;4.95;;;4.60;99.90;;;;;;5087374;28;20353;-71
2021/12/18 10:06:40;;;;;;;10.38;5.32;;;4.60;99.90;;;;;;5087326;28;20179;-71
2021/12/18 10:09:20;;;;;;;9.63;5.82;;;4.60;99.90;;;;;;5087543;28;20159;-73
2021/12/18 10:11:52;;;;;;;7.10;3.33;;;4.70;99.90;;;;;;5087721;28;20175;-72
2021/12/18 10:14:30;;;;;;;4.53;2.63;;;4.80;99.90;;;;;;5069898;28;20208;-74
2021/12/18 10:16:56;;;;;;;7.93;3.67;;;4.80;99.90;;;;;;5068363;28;20205;-72
2021/12/18 10:19:29;;;;;;;5.93;3.87;;;4.70;99.90;;;;;;5067518;28;20379;-74
2021/12/18 10:22:06;;;;;;;5.10;3.90;;;4.70;99.90;;;;;;5067418;28;20408;-76
2021/12/18 10:24:34;;;;;;;4.30;3.42;;;4.70;99.90;;;;;;5067218;28;20181;-72
2021/12/18 10:27:01;;;;;;;9.27;4.93;;;4.70;99.90;;;;;;5067038;28;20176;-72
2021/12/18 10:29:36;;;;;;;6.57;3.78;;;4.70;99.90;;;;;;5067168;28;20167;-72
2021/12/18 10:32:11;;;;;;;12.73;4.38;;;4.70;99.90;;;;;;5067139;28;20362;-72
2021/12/18 10:34:38;;;;;;;3.67;2.75;;;4.60;99.90;;;;;;5067154;28;20191;-72
2021/12/18 10:37:17;;;;;;;5.03;4.10;;;4.70;99.90;;;;;;5066610;28;20213;-71
2021/12/18 10:40:09;;;;;;;6.97;4.25;;;4.70;99.90;;;;;;5066385;28;20274;-72
2021/12/18 10:42:40;;;;;;;6.28;3.45;;;4.80;99.90;;;;;;5067253;28;20165;-73
2021/12/18 10:45:08;;;;;;;5.20;4.22;;;4.80;99.90;;;;;;5065828;28;20265;-72
2021/12/18 10:48:04;;;;;;;7.25;4.05;;;4.80;99.90;;;;;;5065008;28;20179;-70
2021/12/18 10:50:39;;;;;;;3.53;3.22;;;4.80;99.90;;;;;;5069698;28;20289;-71
2021/12/18 10:53:12;;;;;;;4.38;2.80;;;4.90;99.90;;;;;;5087001;28;20173;-72
2021/12/18 10:55:44;;;;;;;4.07;3.67;;;4.90;99.90;;;;;;5082182;28;20233;-76
2021/12/18 10:58:17;;;;;;;6.85;3.53;;;5.00;99.90;;;;;;5097223;27;20233;-73
2021/12/18 11:00:51;;;;;;;5.82;3.78;;;4.90;99.90;;;;;;5081651;28;20192;-74
2021/12/18 11:03:29;;;;;;;6.40;3.28;;;4.90;99.90;;;;;;5102750;27;20216;-73
2021/12/18 11:06:10;;;;;;;3.85;2.90;;;4.90;99.90;;;;;;5101000;27;20170;-71
2021/12/18 11:09:25;;;;;;;2.63;2.42;;;4.90;99.90;;;;;;5084956;28;20188;-72
2021/12/18 11:14:37;;;;;;;5.45;3.45;;;4.90;99.90;;;;;;5072320;28;20315;-69
2021/12/18 11:17:05;;;;;;;7.00;4.50;;;4.90;99.90;;;;;;5066438;28;20210;-71
2021/12/18 11:19:33;;;;;;;5.18;3.65;;;4.90;99.90;;;;;;5085241;27;20156;-72
2021/12/18 11:22:18;;;;;;;6.40;3.58;;;5.00;99.90;;;;;;5089244;27;20166;-74
2021/12/18 11:25:22;;;;;;;4.15;2.63;;;5.00;99.90;;;;;;5104428;27;20382;-70
2021/12/18 11:27:49;;;;;;;5.07;3.33;;;5.00;99.90;;;;;;5003779;28;20231;-71
2021/12/18 11:30:17;;;;;;;4.35;3.60;;;5.10;99.90;;;;;;4990350;28;20178;-70
2021/12/18 11:32:45;;;;;;;4.18;2.85;;;5.10;99.90;;;;;;4990410;28;20172;-67
2021/12/18 11:35:17;;;;;;;4.03;2.78;;;5.10;99.90;;;;;;4990756;28;20259;-69
2021/12/18 11:37:49;;;;;;;5.15;3.95;;;5.10;99.90;;;;;;4974870;28;20171;-67
2021/12/18 11:40:19;;;;;;;6.70;4.60;;;5.20;99.90;;;;;;4990759;28;20399;-70
2021/12/18 11:42:45;;;;;;;7.60;3.85;;;5.30;99.90;;;;;;4989086;28;20172;-70
2021/12/18 11:45:11;;;;;;;4.83;4.33;;;5.20;99.90;;;;;;4986570;28;20211;-71
2021/12/18 11:47:44;;;;;;;7.47;4.13;;;5.20;99.90;;;;;;4986355;28;20171;-74
2021/12/18 11:50:19;;;;;;;5.68;4.05;;;5.30;99.90;;;;;;4975227;28;20196;-68
2021/12/18 11:53:08;;;;;;;6.57;4.05;;;5.30;99.90;;;;;;4970461;28;20200;-70
2021/12/18 11:55:48;;;;;;;4.45;3.95;;;5.20;99.90;;;;;;4970941;28;20312;-70
2021/12/18 11:58:17;;;;;;;6.75;3.55;;;5.30;99.90;;;;;;5009767;28;20181;-70
2021/12/18 12:00:44;;;;;;;4.90;4.07;;;5.20;99.90;;;;;;5070082;28;20188;-68
2021/12/18 12:03:29;;;;;;;5.03;4.07;;;5.20;99.90;;;;;;5055487;28;20197;-71
2021/12/18 12:05:59;;;;;;;6.05;5.40;;;5.10;99.90;;;;;;5085717;28;20177;-75
2021/12/18 12:08:40;;;;;;;4.97;4.15;;;5.10;99.90;;;;;;5054904;28;20184;-71
2021/12/18 12:11:16;;;;;;;3.65;3.00;;;5.00;99.90;;;;;;5052408;28;20245;-70
2021/12/18 12:14:08;;;;;;;5.55;4.57;;;5.10;99.90;;;;;;5071054;28;20298;-71
2021/12/18 12:16:44;;;;;;;5.20;3.63;;;5.20;99.90;;;;;;5063168;28;20202;-69
2021/12/18 12:19:12;;;;;;;6.68;4.18;;;5.30;99.90;;;;;;5079559;28;20180;-68
2021/12/18 12:21:44;;;;;;;5.65;3.78;;;5.30;99.90;;;;;;5075280;28;20324;-68
2021/12/18 12:24:12;;;;;;;7.10;4.30;;;5.40;99.90;;;;;;5052455;28;20272;-70
2021/12/18 12:26:39;;;;;;;5.78;4.47;;;5.50;99.90;;;;;;5069527;28;20172;-70
2021/12/18 12:29:07;;;;;;;7.80;4.70;;;5.60;99.90;;;;;;5069744;28;20174;-68
2021/12/18 12:31:35;;;;;;;4.80;4.35;;;5.60;99.90;;;;;;5069878;28;20243;-66
2021/12/18 12:34:20;;;;;;;4.32;3.70;;;5.60;99.90;;;;;;5069607;28;20222;-68
2021/12/18 12:36:46;;;;;;;3.95;3.65;;;5.50;99.90;;;;;;5069181;28;20208;-67
2021/12/18 12:39:16;;;;;;;4.17;3.47;;;5.50;99.90;;;;;;5069705;28;20309;-68
2021/12/18 12:41:50;;;;;;;4.60;4.22;;;5.40;99.90;;;;;;5069309;28;20429;-67
2021/12/18 12:44:29;;;;;;;7.50;4.10;;;5.40;99.90;;;;;;5069187;28;20248;-67
2021/12/18 12:47:15;;;;;;;6.68;4.28;;;5.40;99.90;;;;;;5068992;28;20161;-69
2021/12/18 12:49:43;;;;;;;5.50;3.60;;;5.30;99.90;;;;;;5069280;28;20161;-65
2021/12/18 12:52:16;;;;;;;6.28;4.22;;;5.40;99.90;;;;;;5069155;28;20173;-69
2021/12/18 12:55:00;;;;;;;5.43;4.03;;;5.30;99.90;;;;;;5069043;28;20330;-65
2021/12/18 12:57:27;;;;;;;4.15;3.50;;;5.30;99.90;;;;;;5068836;28;20173;-69
2021/12/18 12:59:59;;;;;;;3.95;3.40;;;5.30;99.90;;;;;;5069111;28;20162;-65
2021/12/18 13:02:29;;;;;;;5.60;4.75;;;5.30;99.90;;;;;;5067061;28;20289;-66
2021/12/18 13:05:01;;;;;;;7.20;4.20;;;5.30;99.90;;;;;;5069012;28;20251;-65
2021/12/18 13:07:27;;;;;;;6.55;4.25;;;5.40;99.90;;;;;;5051267;28;20182;-67
2021/12/18 13:09:53;;;;;;;6.00;3.60;;;5.40;99.90;;;;;;5068192;28;20218;-67
2021/12/18 13:12:19;;;;;;;7.90;4.10;;;5.40;99.90;;;;;;5068450;28;20524;-68
2021/12/18 13:14:46;;;;;;;7.00;4.93;;;5.30;99.90;;;;;;5068299;28;20204;-66
2021/12/18 13:17:23;;;;;;;7.50;4.40;;;5.20;99.90;;;;;;5068215;28;20633;-67
2021/12/18 13:19:56;;;;;;;4.57;4.18;;;5.20;99.90;;;;;;5068635;28;20405;-66
2021/12/18 13:22:28;;;;;;;4.03;3.55;;;5.20;99.90;;;;;;5068722;28;20437;-67
2021/12/18 13:25:02;;;;;;;5.10;3.70;;;5.20;99.90;;;;;;5068556;28;20188;-67
2021/12/18 13:27:28;;;;;;;6.38;5.45;;;5.20;99.90;;;;;;5066926;28;20183;-66
2021/12/18 13:30:13;;;;;;;9.17;5.10;;;5.20;99.90;;;;;;5066795;28;20272;-66
2021/12/18 13:33:12;;;;;;;5.82;4.00;;;5.10;99.90;;;;;;5066639;28;20182;-66
2021/12/18 13:35:38;;;;;;;8.38;3.72;;;5.10;99.90;;;;;;5066345;28;20225;-67
2021/12/18 13:38:09;;;;;;;4.10;3.70;;;5.10;99.90;;;;;;5066609;28;20233;-67
2021/12/18 13:40:38;;;;;;;6.72;3.65;;;5.10;99.90;;;;;;5066794;28;20438;-67
2021/12/18 13:43:09;;;;;;;6.60;4.25;;;5.10;99.90;;;;;;5067938;28;20165;-67
2021/12/18 13:45:55;;;;;;;6.72;5.50;;;5.20;99.90;;;;;;5068461;28;20362;-67
2021/12/18 13:48:38;;;;;;;3.65;3.00;;;5.20;99.90;;;;;;5067929;28;20165;-66
2021/12/18 13:51:09;;;;;;;4.22;3.60;;;5.30;99.90;;;;;;5068013;28;20177;-67